Data for 02/10/2010

Time Sea-Level Adjusted Pressure Absolute Pressure Temperature Relative Humidity Dew Point   
(mb) (inHg) (mb) (inHg) (C) (F) (%) (C) (F)
00:05 1015 29.97 844 24.92 -7.5 18.5 74 -11.3 11.6
00:10 1014 29.94 844 24.92 -7.4 18.8 73 -11.3 11.6
00:15 1014 29.94 844 24.92 -7.2 19 72 -11.4 11.5
00:20 1014 29.94 844 24.92 -6.6 20.1 69 -11.4 11.4
00:25 1014 29.94 844 24.92 -6.2 20.8 67 -11.3 11.6
00:30 1014 29.94 844 24.92 -6.5 20.2 68 -11.4 11.5
00:35 1014 29.94 844 24.92 -6.6 20.1 68 -11.5 11.3
00:40 1014 29.94 844 24.92 -6.6 20 70 -11.2 11.9
00:45 1014 29.94 844 24.92 -6.6 20.2 68 -11.5 11.4
00:50 1014 29.94 844 24.92 -6.3 20.6 69 -11.2 11.9
00:55 1014 29.94 844 24.92 -6.3 20.7 70 -10.9 12.4
01:00 1014 29.94 844 24.92 -6.5 20.3 71 -10.9 12.4
01:05 1014 29.94 844 24.92 -6.5 20.4 72 -10.8 12.6
01:10 1014 29.94 844 24.92 -6.6 20.1 72 -10.9 12.3
01:15 1014 29.94 844 24.92 -6.6 20.2 71 -11 12.3
01:20 1014 29.94 844 24.92 -6.4 20.5 73 -10.5 13.2
01:25 1014 29.94 844 24.92 -6.7 19.9 74 -10.5 13
01:30 1014 29.94 844 24.92 -6.7 20 72 -10.8 12.5
01:35 1014 29.94 844 24.92 -6.5 20.3 71 -11 12.2
01:40 1014 29.94 843 24.89 -6.5 20.3 72 -10.7 12.8
01:45 1014 29.94 843 24.89 -6.5 20.3 74 -10.5 13.1
01:50 1014 29.94 843 24.89 -6.5 20.2 73 -10.6 13
01:55 1014 29.94 843 24.89 -6.6 20.1 72 -10.8 12.6
02:00 1014 29.94 843 24.89 -6.7 19.9 73 -10.7 12.7
02:05 1014 29.94 843 24.89 -6.5 20.3 72 -10.8 12.5
02:10 1014 29.94 843 24.89 -6.6 20.2 73 -10.6 12.8
02:15 1014 29.94 843 24.89 -6.8 19.7 74 -10.6 12.8
02:20 1014 29.94 843 24.89 -6.7 19.9 72 -11 12.2
02:25 1014 29.94 843 24.89 -6.7 19.9 72 -11 12.1
02:30 1014 29.94 843 24.89 -7.3 18.8 73 -11.5 11.4
02:35 1014 29.94 843 24.89 -7.7 18.1 70 -12.3 9.9
02:40 1014 29.94 843 24.89 -8.2 17.3 75 -11.9 10.6
02:45 1014 29.94 843 24.89 -8.3 17.1 74 -12.1 10.2
02:50 1014 29.94 844 24.92 -8.4 17 74 -12.2 10.1
02:55 1014 29.94 844 24.92 -8.1 17.4 73 -12.2 10
03:00 1014 29.94 843 24.89 -7.9 17.9 71 -12.2 10
03:05 1014 29.94 843 24.89 -7.6 18.4 70 -12.1 10.1
03:10 1014 29.94 843 24.89 -7.5 18.4 70 -12.1 10.2
03:15 1014 29.94 843 24.89 -7.7 18.2 70 -12.1 10.1
03:20 1014 29.94 843 24.89 -7.3 18.8 70 -11.9 10.6
03:25 1014 29.94 843 24.89 -7.4 18.8 71 -11.8 10.7
03:30 1014 29.94 843 24.89 -7.4 18.6 70 -12 10.5
03:35 1014 29.94 843 24.89 -7.5 18.5 70 -12.1 10.1
03:40 1014 29.94 843 24.89 -7.6 18.3 71 -12.1 10.3
03:45 1014 29.94 843 24.89 -7.8 18 72 -12.1 10.3
03:50 1014 29.94 843 24.89 -7.9 17.8 71 -12.2 10
03:55 1014 29.94 843 24.89 -8 17.7 72 -12.2 10
04:00 1014 29.94 843 24.89 -7.9 17.7 72 -12.1 10.2
04:05 1014 29.94 843 24.89 -8 17.5 72 -12.3 9.8
04:10 1014 29.94 843 24.89 -8.2 17.3 72 -12.4 9.6
04:15 1014 29.94 843 24.89 -8.2 17.2 71 -12.6 9.3
04:20 1014 29.94 843 24.89 -8.3 17.1 71 -12.6 9.3
04:25 1014 29.94 843 24.89 -8.3 17.1 71 -12.6 9.3
04:30 1014 29.94 843 24.89 -8.5 16.8 72 -12.6 9.4
04:35 1014 29.94 843 24.89 -8.5 16.7 71 -12.8 9
04:40 1014 29.94 843 24.89 -8.5 16.8 72 -12.6 9.2
04:45 1014 29.94 843 24.89 -8 17.6 70 -12.6 9.4
04:50 1014 29.94 843 24.89 -7.9 17.8 70 -12.4 9.7
04:55 1014 29.94 843 24.89 -7.8 18 70 -12.2 10
05:00 1014 29.94 843 24.89 -7.8 18 70 -12.3 9.9
05:05 1014 29.94 843 24.89 -7.5 18.6 69 -12.2 10.1
05:10 1014 29.94 843 24.89 -7.1 19.2 68 -12.1 10.2
05:15 1014 29.94 843 24.89 -7 19.5 68 -11.9 10.6
05:20 1014 29.94 843 24.89 -7.1 19.3 68 -12 10.4
05:25 1014 29.94 843 24.89 -7.2 19.1 68 -12.1 10.3
05:30 1014 29.94 843 24.89 -7.2 19 69 -12 10.4
05:35 1014 29.94 843 24.89 -7.1 19.2 68 -12 10.4
05:40 1014 29.94 843 24.89 -7.1 19.2 69 -11.8 10.7
05:45 1014 29.94 843 24.89 -7.2 19.1 71 -11.7 11
05:50 1014 29.94 843 24.89 -7.3 18.9 71 -11.7 11
05:55 1014 29.94 843 24.89 -7 19.5 68 -11.9 10.6
06:00 1014 29.94 843 24.89 -6.5 20.2 68 -11.6 11.1
06:05 1014 29.94 843 24.89 -6.3 20.6 66 -11.6 11.1
06:10 1014 29.94 843 24.89 -6.2 20.9 65 -11.7 11
06:15 1014 29.94 843 24.89 -5.7 21.8 61 -12.1 10.3
06:20 1014 29.94 843 24.89 -5.3 22.5 62 -11.5 11.4
06:25 1014 29.94 843 24.89 -5.5 22.1 66 -10.9 12.3
06:30 1014 29.94 843 24.89 -5.9 21.5 66 -11.2 11.9
06:35 1014 29.94 843 24.89 -5.9 21.3 68 -11 12.3
06:40 1014 29.94 843 24.89 -5.8 21.6 67 -11 12.1
06:45 1014 29.94 843 24.89 -5.8 21.6 66 -11.2 11.9
06:50 1014 29.94 843 24.89 -5.8 21.6 66 -11.2 11.9
06:55 1014 29.94 843 24.89 -5.8 21.5 66 -11.1 12
07:00 1014 29.94 843 24.89 -5.8 21.5 67 -11 12.2
07:05 1014 29.94 843 24.89 -5.8 21.5 67 -11.1 12.1
07:10 1014 29.94 843 24.89 -5.8 21.6 67 -11 12.2
07:15 1014 29.94 843 24.89 -5.8 21.6 68 -10.8 12.6
07:20 1014 29.94 843 24.89 -5.8 21.5 65 -11.4 11.5
07:25 1014 29.94 843 24.89 -5.9 21.3 65 -11.5 11.3
07:30 1014 29.94 843 24.89 -6 21.2 66 -11.4 11.4
07:35 1014 29.94 843 24.89 -6.1 21 66 -11.4 11.5
07:40 1014 29.94 843 24.89 -6.1 21 68 -11.2 11.9
07:45 1014 29.94 843 24.89 -6.2 20.8 67 -11.4 11.4
07:50 1014 29.94 843 24.89 -6.2 20.8 67 -11.3 11.6
07:55 1014 29.94 844 24.92 -6.2 20.9 64 -12 10.4
08:00 1014 29.94 844 24.92 -6.2 20.9 65 -11.8 10.7
08:05 1014 29.94 844 24.92 -6.3 20.7 65 -11.8 10.7
08:10 1014 29.94 844 24.92 -6.3 20.7 66 -11.6 11.2
08:15 1014 29.94 844 24.92 -6.1 20.9 68 -11.2 11.9
08:20 1014 29.94 844 24.92 -6.1 21.1 66 -11.4 11.6
08:25 1015 29.97 844 24.92 -6.2 20.8 69 -11.1 12
08:30 1015 29.97 844 24.92 -6.2 20.8 69 -11 12.2
08:35 1015 29.97 844 24.92 -6.4 20.5 69 -11.1 12
08:40 1015 29.97 844 24.92 -6.2 20.9 66 -11.6 11.2
08:45 1015 29.97 844 24.92 -6 21.2 65 -11.5 11.4
08:50 1015 29.97 844 24.92 -5.7 21.8 62 -11.8 10.8
08:55 1014 29.94 844 24.92 -5.5 22.1 61 -11.9 10.6
09:00 1014 29.94 844 24.92 -5.2 22.6 62 -11.5 11.3
09:05 1014 29.94 844 24.92 -5 22.9 59 -11.9 10.5
09:10 1014 29.94 844 24.92 -5.1 22.9 58 -12.1 10.3
09:15 1014 29.94 844 24.92 -5.1 22.9 61 -11.4 11.4
09:20 1014 29.94 844 24.92 -4.8 23.4 61 -11.2 11.8
09:25 1014 29.94 844 24.92 -4.6 23.7 63 -10.6 12.9
09:30 1014 29.94 844 24.92 -4.6 23.7 64 -10.3 13.4
09:35 1014 29.94 844 24.92 -4.5 23.9 62 -10.6 12.9
09:40 1014 29.94 844 24.92 -4.4 24.1 62 -10.6 13
09:45 1014 29.94 844 24.92 -4 24.8 60 -10.6 12.8
09:50 1014 29.94 844 24.92 -3.7 25.4 58 -10.8 12.6
09:55 1014 29.94 844 24.92 -3.6 25.6 59 -10.5 13.2
10:00 1014 29.94 844 24.92 -3.2 26.2 58 -10.3 13.5
10:05 1014 29.94 844 24.92 -2.7 27.1 55 -10.7 12.7
10:10 1014 29.94 844 24.92 -2.9 26.8 55 -10.8 12.5
10:15 1014 29.94 844 24.92 -3.3 26 56 -10.9 12.4
10:20 1014 29.94 844 24.92 -3.4 25.9 57 -10.7 12.7
10:25 1014 29.94 844 24.92 -3.7 25.4 56 -11.2 11.9
10:30 1014 29.94 844 24.92 -4 24.8 57 -11.2 11.8
10:35 1014 29.94 844 24.92 -3.7 25.4 57 -10.9 12.4
10:40 1014 29.94 844 24.92 -3.3 26 57 -10.8 12.6
10:45 1014 29.94 844 24.92 -2.4 27.7 53 -10.7 12.8
10:50 1014 29.94 843 24.89 -1.8 28.7 51 -10.6 13
10:55 1014 29.94 843 24.89 -1.9 28.6 51 -10.7 12.7
11:00 1014 29.94 843 24.89 -1.5 29.3 49 -11 12.2
11:05 1014 29.94 843 24.89 -0.8 30.5 47 -10.9 12.4
11:10 1014 29.94 843 24.89 -0.7 30.8 48 -10.5 13.1
11:15 1014 29.94 843 24.89 -0.3 31.5 46 -10.6 13
11:20 1014 29.94 843 24.89 -0 31.9 45 -10.5 13.1
11:25 1014 29.94 843 24.89 -0.1 31.7 45 -10.8 12.6
11:30 1014 29.94 843 24.89 0 32.1 45 -10.7 12.8
11:35 1014 29.94 843 24.89 0 32 44 -10.7 12.7
11:40 1014 29.94 843 24.89 0.1 32.2 43 -11.2 11.9
11:45 1014 29.94 843 24.89 0.2 32.4 43 -11 12.2
11:50 1014 29.94 843 24.89 0.2 32.3 43 -11 12.2
11:55 1014 29.94 843 24.89 -0 31.9 43 -11.2 11.9
12:00 1014 29.94 843 24.89 -0.2 31.6 46 -10.6 12.9
12:05 1014 29.94 843 24.89 -0 31.9 44 -10.9 12.4
12:10 1014 29.94 843 24.89 0 32 46 -10.4 13.3
12:15 1014 29.94 843 24.89 0.3 32.6 41 -11.4 11.4
12:20 1013 29.91 843 24.89 0.9 33.7 42 -10.7 12.8
12:25 1013 29.91 843 24.89 1.5 34.6 41 -10.5 13
12:30 1013 29.91 843 24.89 1.6 34.8 40 -10.6 12.9
12:35 1013 29.91 842 24.86 1.7 35.1 39 -10.8 12.5
12:40 1013 29.91 842 24.86 1.9 35.5 39 -10.7 12.8
12:45 1013 29.91 842 24.86 2 35.5 38 -11 12.2
12:50 1013 29.91 842 24.86 1.8 35.3 38 -11.1 12
12:55 1013 29.91 842 24.86 1.6 34.8 39 -11 12.2
13:00 1013 29.91 842 24.86 1.5 34.6 38 -11.3 11.7
13:05 1013 29.91 842 24.86 1.6 34.9 37 -11.6 11.1
13:10 1013 29.91 842 24.86 1.9 35.4 36 -11.8 10.8
13:15 1013 29.91 842 24.86 1.8 35.2 37 -11.5 11.2
13:20 1013 29.91 842 24.86 1.6 34.9 36 -11.9 10.7
13:25 1013 29.91 842 24.86 1.6 34.9 38 -11.3 11.7
13:30 1013 29.91 842 24.86 1.6 34.9 37 -11.7 10.9
13:35 1013 29.91 842 24.86 1.8 35.3 36 -11.9 10.6
13:40 1013 29.91 842 24.86 1.3 34.3 38 -11.4 11.5
13:45 1012 29.88 842 24.86 1.2 34.2 37 -12.1 10.3
13:50 1012 29.88 842 24.86 1.5 34.7 34 -12.6 9.3
13:55 1012 29.88 842 24.86 1.5 34.7 37 -11.8 10.8
14:00 1012 29.88 841 24.83 1.6 34.9 35 -12.3 9.8
14:05 1012 29.88 841 24.83 1.9 35.5 34 -12.5 9.5
14:10 1012 29.88 841 24.83 2.3 36.2 34 -12.1 10.1
14:15 1012 29.88 841 24.83 2.3 36.1 34 -12.1 10.3
14:20 1012 29.88 841 24.83 2.2 36 35 -11.8 10.8
14:25 1012 29.88 841 24.83 2.6 36.6 35 -11.6 11.2
14:30 1012 29.88 841 24.83 2.6 36.8 37 -10.6 13
14:35 1012 29.88 841 24.83 2.6 36.7 37 -10.8 12.6
14:40 1012 29.88 841 24.83 2.2 35.9 37 -11.2 11.9
14:45 1012 29.88 841 24.83 2.4 36.3 38 -10.4 13.3
14:50 1012 29.88 841 24.83 2.4 36.2 38 -10.6 12.9
14:55 1012 29.88 841 24.83 2.5 36.5 36 -11 12.2
15:00 1012 29.88 841 24.83 2.6 36.7 36 -11 12.1
15:05 1012 29.88 841 24.83 2.5 36.4 36 -11.2 11.8
15:10 1012 29.88 841 24.83 2.3 36.1 36 -11.4 11.4
15:15 1012 29.88 841 24.83 2 35.6 38 -10.9 12.4
15:20 1012 29.88 841 24.83 2.5 36.5 35 -11.4 11.4
15:25 1012 29.88 841 24.83 2.8 37 35 -11.1 12
15:30 1012 29.88 841 24.83 2.9 37.3 36 -10.8 12.5
15:35 1012 29.88 841 24.83 2.3 36.1 37 -10.8 12.5
15:40 1012 29.88 841 24.83 1.9 35.4 39 -10.6 12.8
15:45 1012 29.88 841 24.83 1.9 35.5 39 -10.8 12.6
15:50 1012 29.88 841 24.83 1.9 35.4 39 -10.5 13
15:55 1012 29.88 841 24.83 1.8 35.3 39 -10.7 12.7
16:00 1012 29.88 841 24.83 1.5 34.7 41 -10.5 13.1
16:05 1012 29.88 841 24.83 1.6 34.8 39 -10.9 12.4
16:10 1012 29.88 841 24.83 1.6 34.9 41 -10.3 13.5
16:15 1012 29.88 841 24.83 1.2 34.2 42 -10.3 13.4
16:20 1012 29.88 841 24.83 0.8 33.5 43 -10.3 13.5
16:25 1012 29.88 841 24.83 0.4 32.8 44 -10.5 13
16:30 1012 29.88 841 24.83 0.1 32.2 45 -10.4 13.2
16:35 1012 29.88 841 24.83 -0.1 31.8 46 -10.2 13.6
16:40 1012 29.88 841 24.83 -0.4 31.4 48 -10.2 13.7
16:45 1012 29.88 841 24.83 -0.5 31.1 48 -10.2 13.6
16:50 1012 29.88 841 24.83 -0.6 31 48 -10.3 13.4
16:55 1012 29.88 841 24.83 -0.7 30.7 48 -10.4 13.3
17:00 1012 29.88 841 24.83 -0.9 30.4 49 -10.3 13.4
17:05 1012 29.88 841 24.83 -0.9 30.3 48 -10.5 13
17:10 1012 29.88 841 24.83 -1 30.2 48 -10.6 13
17:15 1012 29.88 841 24.83 -1 30.1 50 -10.2 13.6
17:20 1012 29.88 841 24.83 -1.4 29.6 51 -10.3 13.4
17:25 1012 29.88 841 24.83 -1.5 29.2 51 -10.4 13.3
17:30 1012 29.88 841 24.83 -1.6 29.1 50 -10.6 12.9
17:35 1012 29.88 841 24.83 -1.3 29.6 49 -10.6 12.9
17:40 1012 29.88 841 24.83 -1.3 29.7 49 -10.8 12.5
17:45 1012 29.88 841 24.83 -1.3 29.6 49 -10.7 12.7
17:50 1012 29.88 841 24.83 -1.6 29.1 51 -10.4 13.2
17:55 1012 29.88 841 24.83 -1.6 29 50 -10.7 12.7
18:00 1012 29.88 841 24.83 -1.6 29.1 53 -10.1 13.9
18:05 1012 29.88 841 24.83 -2.1 28.2 54 -10.2 13.7
18:10 1012 29.88 841 24.83 -2.2 28.1 53 -10.5 13.1
18:15 1012 29.88 842 24.86 -1.9 28.6 54 -10 14.1
18:20 1012 29.88 842 24.86 -2.3 27.8 57 -9.8 14.4
18:25 1012 29.88 842 24.86 -2.7 27.1 54 -10.8 12.5
18:30 1012 29.88 842 24.86 -2.7 27.1 55 -10.5 13
18:35 1012 29.88 842 24.86 -2.7 27.2 57 -10.1 13.8
18:40 1012 29.88 842 24.86 -2.7 27.2 55 -10.5 13.2
18:45 1012 29.88 842 24.86 -2.4 27.7 54 -10.6 13
18:50 1012 29.88 842 24.86 -2.4 27.7 55 -10.3 13.5
18:55 1012 29.88 842 24.86 -2.5 27.4 56 -10.2 13.7
19:00 1012 29.88 842 24.86 -2.5 27.4 56 -10.2 13.6
19:05 1012 29.88 842 24.86 -2.6 27.2 57 -10.1 13.7
19:10 1012 29.88 842 24.86 -2.7 27.2 56 -10.3 13.5
19:15 1012 29.88 842 24.86 -2.7 27.1 56 -10.2 13.6
19:20 1012 29.88 842 24.86 -2.5 27.6 53 -10.9 12.4
19:25 1012 29.88 842 24.86 -2.1 28.2 51 -11 12.2
19:30 1012 29.88 842 24.86 -1.9 28.6 50 -11.1 12.1
19:35 1012 29.88 842 24.86 -1.9 28.5 50 -11.1 12
19:40 1012 29.88 841 24.83 -1.8 28.7 48 -11.4 11.6
19:45 1012 29.88 842 24.86 -1.7 29 47 -11.5 11.3
19:50 1012 29.88 842 24.86 -1.6 29.1 47 -11.6 11.2
19:55 1012 29.88 842 24.86 -1.5 29.3 46 -11.6 11.1
20:00 1012 29.88 842 24.86 -1.5 29.3 46 -11.6 11.1
20:05 1012 29.88 842 24.86 -1.6 29.1 48 -11.2 11.9
20:10 1012 29.88 842 24.86 -1.8 28.8 49 -11.2 11.9
20:15 1012 29.88 842 24.86 -1.8 28.7 49 -11.2 11.8
20:20 1012 29.88 842 24.86 -1.8 28.7 50 -11 12.2
20:25 1012 29.88 842 24.86 -1.9 28.6 50 -10.9 12.4
20:30 1012 29.88 842 24.86 -2 28.4 51 -10.7 12.7
20:35 1012 29.88 842 24.86 -2 28.4 52 -10.5 13
20:40 1012 29.88 842 24.86 -1.9 28.5 52 -10.5 13.1
20:45 1012 29.88 842 24.86 -1.9 28.6 54 -10.1 13.8
20:50 1013 29.91 842 24.86 -2 28.3 53 -10.4 13.3
20:55 1013 29.91 842 24.86 -1.9 28.5 50 -10.9 12.3
21:00 1013 29.91 842 24.86 -1.8 28.8 50 -11 12.2
21:05 1013 29.91 842 24.86 -1.6 29.2 51 -10.5 13.1
21:10 1012 29.88 842 24.86 -1.6 29.2 50 -10.6 12.9
21:15 1013 29.91 842 24.86 -1.6 29.1 51 -10.4 13.3
21:20 1013 29.91 842 24.86 -1.6 29.1 51 -10.4 13.3
21:25 1013 29.91 842 24.86 -1.7 29 51 -10.6 12.9
21:30 1013 29.91 842 24.86 -1.6 29.1 51 -10.6 13
21:35 1013 29.91 842 24.86 -1.6 29.1 50 -10.6 12.9
21:40 1013 29.91 842 24.86 -1.7 29 51 -10.6 12.9
21:45 1013 29.91 842 24.86 -1.6 29.1 51 -10.5 13
21:50 1012 29.88 842 24.86 -1.7 29 52 -10.3 13.4
21:55 1012 29.88 842 24.86 -1.7 28.9 53 -10.1 13.8
22:00 1012 29.88 842 24.86 -1.7 28.9 51 -10.6 13
22:05 1012 29.88 842 24.86 -1.8 28.9 52 -10.2 13.6
22:10 1012 29.88 842 24.86 -1.8 28.8 52 -10.3 13.5
22:15 1013 29.91 842 24.86 -1.8 28.8 52 -10.4 13.3
22:20 1013 29.91 842 24.86 -1.8 28.8 52 -10.4 13.3
22:25 1013 29.91 842 24.86 -1.8 28.8 52 -10.3 13.4
22:30 1013 29.91 842 24.86 -1.7 28.9 51 -10.7 12.8
22:35 1013 29.91 842 24.86 -1.7 28.9 50 -10.8 12.6
22:40 1013 29.91 842 24.86 -1.7 29 52 -10.3 13.5
22:45 1013 29.91 842 24.86 -1.7 29 51 -10.6 13
22:50 1013 29.91 842 24.86 -1.6 29.1 51 -10.4 13.2
22:55 1013 29.91 842 24.86 -1.6 29 52 -10.4 13.3
23:00 1013 29.91 842 24.86 -1.7 29 52 -10.2 13.7
23:05 1013 29.91 842 24.86 -1.8 28.8 52 -10.3 13.4
23:10 1013 29.91 842 24.86 -1.8 28.8 52 -10.3 13.4
23:15 1013 29.91 842 24.86 -1.8 28.8 52 -10.4 13.4
23:20 1012 29.88 842 24.86 -1.7 28.9 54 -10 14.1
23:25 1013 29.91 842 24.86 -1.8 28.8 53 -10.2 13.6
23:30 1012 29.88 842 24.86 -1.8 28.7 52 -10.5 13.1
23:35 1012 29.88 842 24.86 -1.7 28.9 51 -10.6 12.9
23:40 1013 29.91 842 24.86 -1.7 29 51 -10.6 12.8
23:45 1013 29.91 842 24.86 -1.7 29 50 -10.7 12.7
23:50 1013 29.91 842 24.86 -1.7 29 51 -10.5 13.1
23:55 1013 29.91 842 24.86 -1.7 28.9 52 -10.4 13.4
24:00 1013 29.91 842 24.86 -1.8 28.8 51 -10.6 12.9